createdAt,value
2019-03-11T00:01:07.118Z,97792.19
2019-03-11T00:03:43.284Z,97789.68
2019-03-11T00:06:18.994Z,97755.39
2019-03-11T00:08:54.779Z,97835.50
2019-03-11T00:11:30.643Z,97822.28
2019-03-11T00:14:06.691Z,97841.42
2019-03-11T00:16:42.539Z,97904.02
2019-03-11T00:19:18.403Z,97866.92
2019-03-11T00:21:54.262Z,97911.10
2019-03-11T00:24:30.105Z,97935.55
2019-03-11T00:27:05.969Z,97967.42
2019-03-11T00:29:41.819Z,97970.05
2019-03-11T00:32:17.663Z,97997.23
2019-03-11T00:34:54.541Z,98005.95
2019-03-11T00:37:30.513Z,97954.20
2019-03-11T00:40:09.469Z,98225.59
2019-03-11T00:42:45.385Z,98216.64
2019-03-11T00:45:21.243Z,98207.33
2019-03-11T00:48:02.109Z,98268.27
2019-03-11T00:50:34.704Z,98367.31
2019-03-11T00:53:10.542Z,98325.75
2019-03-11T00:55:46.401Z,98344.72
2019-03-11T00:58:22.257Z,98360.23
2019-03-11T01:00:58.114Z,98418.42
2019-03-11T01:03:33.853Z,98505.13
2019-03-11T01:06:09.720Z,98455.60
2019-03-11T01:08:45.566Z,98445.31
2019-03-11T01:11:21.430Z,98465.61
2019-03-11T01:13:57.266Z,98489.57
2019-03-11T01:16:33.129Z,98492.37
2019-03-11T01:19:11.319Z,98493.45
2019-03-11T01:21:47.809Z,98527.55
2019-03-11T01:24:23.869Z,98529.25
2019-03-11T01:27:17.327Z,98545.50
2019-03-11T01:29:53.185Z,98565.34
2019-03-11T01:32:29.054Z,98583.65
2019-03-11T01:35:06.244Z,98598.63
2019-03-11T01:37:42.593Z,98615.70
2019-03-11T01:40:19.055Z,98620.13
2019-03-11T01:42:54.806Z,98595.72
2019-03-11T01:45:30.672Z,98626.80
2019-03-11T01:48:06.486Z,98682.84
2019-03-11T01:50:42.774Z,98672.39
2019-03-11T01:53:18.541Z,98671.05
2019-03-11T01:55:55.624Z,98670.59
2019-03-11T01:58:32.499Z,98656.58
2019-03-11T02:01:08.357Z,98694.45
2019-03-11T02:03:44.418Z,98669.05
2019-03-11T02:06:20.257Z,98679.99
2019-03-11T02:08:56.007Z,98684.02
2019-03-11T02:11:31.875Z,98689.51
2019-03-11T02:14:08.748Z,98688.08
2019-03-11T02:16:44.503Z,98704.44
2019-03-11T02:19:20.195Z,98701.13
2019-03-11T02:21:56.930Z,98708.03
2019-03-11T02:24:32.685Z,98698.30
2019-03-11T02:27:10.788Z,98705.19
2019-03-11T02:29:48.144Z,98709.45
2019-03-11T02:32:24.041Z,98709.83
2019-03-11T02:34:59.871Z,98718.42
2019-03-11T02:37:36.240Z,98722.94
2019-03-11T02:40:15.588Z,98741.09
2019-03-11T02:42:51.432Z,98723.70
2019-03-11T02:45:27.213Z,98728.11
2019-03-11T02:48:03.980Z,98722.06
2019-03-11T02:50:39.817Z,98735.94
2019-03-11T02:53:15.671Z,98723.90
2019-03-11T02:55:51.488Z,98727.75
2019-03-11T02:58:27.366Z,98730.33
2019-03-11T03:01:07.737Z,98729.91
2019-03-11T03:03:47.893Z,98718.13
2019-03-11T03:06:23.741Z,98742.38
2019-03-11T03:09:00.640Z,98748.02
2019-03-11T03:11:37.890Z,98747.23
2019-03-11T03:14:13.756Z,98749.70
2019-03-11T03:16:49.620Z,98756.80
2019-03-11T03:19:25.524Z,98761.59
2019-03-11T03:22:01.426Z,98753.58
2019-03-11T03:24:37.186Z,98772.84
2019-03-11T03:27:13.034Z,98762.63
2019-03-11T03:29:48.774Z,98764.42
2019-03-11T03:32:24.648Z,98771.98
2019-03-11T03:35:00.907Z,98761.70
2019-03-11T03:37:36.757Z,98769.00
2019-03-11T03:40:14.405Z,98775.22
2019-03-11T03:42:50.305Z,98784.13
2019-03-11T03:45:34.244Z,98778.33
2019-03-11T03:51:09.515Z,98774.18
2019-03-11T03:53:45.377Z,98761.05
2019-03-11T03:56:21.227Z,98781.87
2019-03-11T03:58:58.195Z,98788.55
2019-03-11T04:01:34.387Z,98766.07
2019-03-11T04:04:10.224Z,98783.97
2019-03-11T04:06:46.059Z,98789.66
2019-03-11T04:09:21.924Z,98785.86
2019-03-11T04:11:57.789Z,98793.71
2019-03-11T04:14:33.635Z,98805.55
2019-03-11T04:17:09.481Z,98809.33
2019-03-11T04:19:45.346Z,98799.34
2019-03-11T04:22:21.205Z,98807.87
2019-03-11T04:24:57.055Z,98818.69
2019-03-11T04:27:32.903Z,98813.05
2019-03-11T04:30:20.839Z,98818.22
2019-03-11T04:32:56.692Z,98805.01
2019-03-11T04:35:32.555Z,98821.53
2019-03-11T04:38:09.517Z,98804.28
2019-03-11T04:40:45.387Z,98817.06
2019-03-11T04:43:21.235Z,98815.53
2019-03-11T04:45:57.088Z,98811.44
2019-03-11T04:48:32.929Z,98823.07
2019-03-11T04:51:08.789Z,98817.59
2019-03-11T04:53:44.646Z,98819.39
2019-03-11T04:56:20.395Z,98817.87
2019-03-11T04:58:59.219Z,98822.61
2019-03-11T05:01:34.979Z,98818.66
2019-03-11T05:04:10.724Z,98825.19
2019-03-11T05:06:46.587Z,98819.56
2019-03-11T05:09:22.337Z,98823.72
2019-03-11T05:11:58.399Z,98814.19
2019-03-11T05:14:34.137Z,98813.92
2019-03-11T05:17:10.002Z,98808.76
2019-03-11T05:19:45.860Z,98812.70
2019-03-11T05:22:21.707Z,98814.25
2019-03-11T05:24:57.455Z,98827.26
2019-03-11T05:27:33.318Z,98827.98
2019-03-11T05:30:18.285Z,98841.05
2019-03-11T05:32:54.845Z,98845.26
2019-03-11T05:35:30.712Z,98839.41
2019-03-11T05:38:06.520Z,98838.94
2019-03-11T05:40:45.118Z,98844.98
2019-03-11T05:43:21.954Z,98848.78
2019-03-11T05:45:59.399Z,98844.77
2019-03-11T05:48:36.907Z,98843.83
2019-03-11T05:51:12.918Z,98846.94
2019-03-11T05:53:52.709Z,98842.92
2019-03-11T05:56:28.945Z,98844.14
2019-03-11T05:59:06.882Z,98847.41
2019-03-11T06:01:42.965Z,98851.45
2019-03-11T06:04:19.094Z,98843.70
2019-03-11T06:06:58.077Z,98841.31
2019-03-11T06:09:39.897Z,98840.98
2019-03-11T06:12:22.624Z,98843.19
2019-03-11T06:15:05.322Z,98842.24
2019-03-11T06:17:40.869Z,98843.71
2019-03-11T06:20:21.595Z,98849.23
2019-03-11T06:22:58.165Z,98857.14
2019-03-11T06:25:33.913Z,98848.05
2019-03-11T06:28:09.773Z,98850.47
2019-03-11T06:30:45.523Z,98855.58
2019-03-11T06:33:21.270Z,98848.61
2019-03-11T06:35:57.027Z,98851.85
2019-03-11T06:38:32.987Z,98861.08
2019-03-11T06:41:08.740Z,98860.70
2019-03-11T06:43:44.686Z,98867.36
2019-03-11T06:46:20.558Z,98889.23
2019-03-11T06:48:56.407Z,98883.42
2019-03-11T06:51:32.246Z,98883.48
2019-03-11T06:54:08.106Z,98878.38
2019-03-11T06:56:43.861Z,98896.06
2019-03-11T06:59:19.941Z,98889.54
2019-03-11T07:01:55.690Z,98897.67
2019-03-11T07:04:31.629Z,98896.06
2019-03-11T07:07:07.576Z,98906.77
2019-03-11T07:09:43.431Z,98895.84
2019-03-11T07:12:19.283Z,98888.47
2019-03-11T07:14:55.147Z,98890.94
2019-03-11T07:17:30.987Z,98908.70
2019-03-11T07:20:12.408Z,98897.39
2019-03-11T07:22:48.232Z,98896.91
2019-03-11T07:25:24.088Z,98868.77
2019-03-11T07:28:00.654Z,98880.92
2019-03-11T07:30:36.506Z,98882.61
2019-03-11T07:33:12.559Z,98875.98
2019-03-11T07:35:48.426Z,98871.01
2019-03-11T07:38:25.361Z,98878.28
2019-03-11T07:41:01.148Z,98882.38
2019-03-11T07:43:37.004Z,98884.53
2019-03-11T07:46:12.860Z,98883.34
2019-03-11T07:48:50.202Z,98878.66
2019-03-11T07:51:25.999Z,98891.20
2019-03-11T07:54:02.903Z,98895.77
2019-03-11T07:56:38.679Z,98887.84
2019-03-11T07:59:14.421Z,98894.84
2019-03-11T08:01:50.501Z,98892.33
2019-03-11T08:04:26.374Z,98891.92
2019-03-11T08:07:02.128Z,98897.61
2019-03-11T08:09:38.495Z,98903.97
2019-03-11T08:12:14.682Z,98900.53
2019-03-11T08:14:50.645Z,98893.13
2019-03-11T08:17:26.359Z,98899.26
2019-03-11T08:20:05.615Z,98909.34
2019-03-11T08:22:41.344Z,98910.42
2019-03-11T08:25:17.348Z,98911.06
2019-03-11T08:27:53.101Z,98906.77
2019-03-11T08:30:28.930Z,98903.25
2019-03-11T08:33:04.679Z,98908.28
2019-03-11T08:35:40.734Z,98916.06
2019-03-11T08:38:16.495Z,98913.27
2019-03-11T08:40:52.360Z,98906.38
2019-03-11T08:43:28.091Z,98910.40
2019-03-11T08:46:03.951Z,98914.39
2019-03-11T08:48:39.642Z,98919.16
2019-03-11T08:51:15.458Z,98914.10
2019-03-11T08:53:51.210Z,98921.11
2019-03-11T08:56:27.055Z,98913.70
2019-03-11T08:59:02.919Z,98906.93
2019-03-11T09:01:38.668Z,98895.09
2019-03-11T09:04:14.414Z,98916.63
2019-03-11T09:06:50.169Z,98911.75
2019-03-11T09:09:26.788Z,98912.86
2019-03-11T09:12:02.702Z,98908.16
2019-03-11T09:14:38.520Z,98912.16
2019-03-11T09:17:14.315Z,98923.05
2019-03-11T09:19:50.061Z,98916.19
2019-03-11T09:22:25.904Z,98900.72
2019-03-11T09:25:02.410Z,98894.09
2019-03-11T09:27:38.656Z,98897.86
2019-03-11T09:30:20.347Z,98891.99
2019-03-11T09:32:56.296Z,98893.89
2019-03-11T09:35:32.151Z,98898.44
2019-03-11T09:38:08.003Z,98898.34
2019-03-11T09:40:43.849Z,98887.73
2019-03-11T09:43:19.712Z,98890.86
2019-03-11T09:45:55.558Z,98896.63
2019-03-11T09:48:31.625Z,98887.00
2019-03-11T09:51:07.424Z,98890.14
2019-03-11T09:53:43.324Z,98891.26
2019-03-11T09:56:19.178Z,98886.10
2019-03-11T09:58:55.549Z,98883.38
2019-03-11T10:01:32.941Z,98881.81
2019-03-11T10:04:08.792Z,98890.47
2019-03-11T10:06:44.641Z,98888.73
2019-03-11T10:09:20.498Z,98885.33
2019-03-11T10:11:56.355Z,98892.38
2019-03-11T10:14:32.262Z,98881.50
2019-03-11T10:17:08.071Z,98880.46
2019-03-11T10:19:43.917Z,98877.05
2019-03-11T10:22:19.777Z,98891.75
2019-03-11T10:24:55.613Z,98878.38
2019-03-11T10:27:31.468Z,98881.52
2019-03-11T10:30:12.453Z,98865.14
2019-03-11T10:32:48.192Z,98864.09
2019-03-11T10:35:31.992Z,98867.05
2019-03-11T10:38:01.558Z,98868.75
2019-03-11T10:40:37.403Z,98874.80
2019-03-11T10:43:13.262Z,98867.34
2019-03-11T10:45:49.116Z,98873.87
2019-03-11T10:48:36.368Z,98864.09
2019-03-11T10:51:02.950Z,98863.10
2019-03-11T10:53:39.028Z,98846.71
2019-03-11T10:56:14.884Z,98849.42
2019-03-11T10:58:50.741Z,98847.47
2019-03-11T11:01:26.477Z,98843.03
2019-03-11T11:04:02.345Z,98843.47
2019-03-11T11:06:39.225Z,98839.59
2019-03-11T11:09:15.177Z,98832.72
2019-03-11T11:11:50.930Z,98829.66
2019-03-11T11:14:26.777Z,98825.20
2019-03-11T11:17:02.643Z,98832.40
2019-03-11T11:19:38.695Z,98810.83
2019-03-11T11:22:14.550Z,98815.44
2019-03-11T11:24:50.405Z,98804.81
2019-03-11T11:27:26.236Z,98810.69
2019-03-11T11:30:02.100Z,98802.73
2019-03-11T11:32:38.158Z,98797.13
2019-03-11T11:35:14.734Z,98794.75
2019-03-11T11:37:50.529Z,98783.16
2019-03-11T11:40:28.190Z,98777.24
2019-03-11T11:43:04.139Z,98784.41
2019-03-11T11:45:39.993Z,98774.17
2019-03-11T11:48:15.753Z,98770.36
2019-03-11T11:50:51.699Z,98765.52
2019-03-11T11:53:27.568Z,98749.97
2019-03-11T11:56:03.415Z,98763.80
2019-03-11T11:58:40.906Z,98754.88
2019-03-11T12:01:16.970Z,98755.62
2019-03-11T12:03:52.809Z,98759.97
2019-03-11T12:06:28.669Z,98756.34
2019-03-11T12:09:05.964Z,98757.19
2019-03-11T12:11:43.367Z,98758.78
2019-03-11T12:14:19.213Z,98747.45
2019-03-11T12:16:55.262Z,98745.69
2019-03-11T12:19:31.114Z,98741.66
2019-03-11T12:22:06.961Z,98747.11
2019-03-11T12:24:42.727Z,98735.30
2019-03-11T12:27:18.569Z,98737.45
2019-03-11T12:29:54.431Z,98737.55
2019-03-11T12:32:30.287Z,98727.06
2019-03-11T12:35:07.396Z,98726.23
2019-03-11T12:37:43.329Z,98718.19
2019-03-11T12:40:19.286Z,98716.39
2019-03-11T12:42:55.735Z,98712.17
2019-03-11T12:45:31.797Z,98714.22
2019-03-11T12:48:08.794Z,98719.39
2019-03-11T12:50:44.638Z,98709.90
2019-03-11T12:53:20.389Z,98721.17
2019-03-11T12:55:56.243Z,98720.08
2019-03-11T12:58:40.954Z,98720.08
2019-03-11T13:01:09.589Z,98726.88
2019-03-11T13:03:45.448Z,98724.84
2019-03-11T13:06:21.319Z,98735.14
2019-03-11T13:09:00.380Z,98738.53
2019-03-11T13:11:40.067Z,98738.41
2019-03-11T13:14:15.932Z,98739.75
2019-03-11T13:16:51.781Z,98732.68
2019-03-11T13:19:27.630Z,98742.02
2019-03-11T13:22:04.004Z,98738.84
2019-03-11T13:24:39.857Z,98737.83
2019-03-11T13:27:15.702Z,98741.61
2019-03-11T13:29:51.566Z,98750.27
2019-03-11T13:32:27.410Z,98749.70
2019-03-11T13:35:03.284Z,98748.68
2019-03-11T13:37:39.122Z,98755.16
2019-03-11T13:40:16.173Z,98763.23
2019-03-11T13:42:52.065Z,98773.45
2019-03-11T13:45:27.919Z,98766.50
2019-03-11T13:48:03.762Z,98779.31
2019-03-11T13:50:39.624Z,98796.37
2019-03-11T13:53:15.478Z,98814.56
2019-03-11T13:55:51.335Z,98868.44
2019-03-11T13:58:27.190Z,98890.36
2019-03-11T14:01:02.930Z,98933.11
2019-03-11T14:03:39.073Z,98908.02
2019-03-11T14:06:14.944Z,98912.72
2019-03-11T14:08:50.810Z,98911.23
2019-03-11T14:11:26.759Z,98936.88
2019-03-11T14:14:02.508Z,98933.20
2019-03-11T14:16:38.672Z,98948.42
2019-03-11T14:19:14.533Z,98942.63
2019-03-11T14:21:51.355Z,98953.97
2019-03-11T14:24:27.156Z,98953.66
2019-03-11T14:27:03.022Z,98936.09
2019-03-11T14:29:38.872Z,98936.60
2019-03-11T14:32:14.762Z,98915.05
2019-03-11T14:34:50.881Z,98924.28
2019-03-11T14:37:26.739Z,98931.98
2019-03-11T14:40:02.581Z,98941.13
2019-03-11T14:42:38.333Z,98932.51
2019-03-11T14:45:18.811Z,98936.73
2019-03-11T14:47:54.667Z,98941.38
2019-03-11T14:50:31.532Z,98931.27
2019-03-11T14:53:07.504Z,98935.49
2019-03-11T14:55:43.341Z,98927.19
2019-03-11T14:58:29.071Z,98919.63
2019-03-11T15:00:56.796Z,98917.75
2019-03-11T15:03:32.642Z,98925.11
2019-03-11T15:06:08.558Z,98929.11
2019-03-11T15:08:44.355Z,98931.55
2019-03-11T15:11:20.599Z,98931.13
2019-03-11T15:13:57.603Z,98933.76
2019-03-11T15:16:33.457Z,98933.23
2019-03-11T15:19:09.306Z,98927.75
2019-03-11T15:21:45.161Z,98915.73
2019-03-11T15:24:21.025Z,98910.38
2019-03-11T15:26:56.863Z,98910.12
2019-03-11T15:29:32.721Z,98907.12
2019-03-11T15:32:08.550Z,98913.09
2019-03-11T15:34:44.431Z,98927.72
2019-03-11T15:37:21.406Z,98925.77
2019-03-11T15:39:57.269Z,98928.44
2019-03-11T15:42:33.117Z,98930.09
2019-03-11T15:45:14.503Z,98926.61
2019-03-11T15:47:50.863Z,98929.67
2019-03-11T15:50:34.487Z,98928.18
2019-03-11T15:53:10.372Z,98926.54
2019-03-11T15:55:46.105Z,98928.95
2019-03-11T15:58:23.099Z,98937.31
2019-03-11T16:00:58.848Z,98939.69
2019-03-11T16:03:36.594Z,98944.15
2019-03-11T16:06:12.197Z,98949.45
2019-03-11T16:08:48.360Z,98957.41
2019-03-11T16:11:24.209Z,98959.63
2019-03-11T16:14:00.160Z,98971.02
2019-03-11T16:16:36.030Z,98973.33
2019-03-11T16:19:11.871Z,98979.58
2019-03-11T16:21:47.725Z,98987.62
2019-03-11T16:24:23.578Z,98989.40
2019-03-11T16:26:59.406Z,98993.02
2019-03-11T16:29:35.274Z,98996.97
2019-03-11T16:32:12.163Z,98997.25
2019-03-11T16:34:48.219Z,98997.81
2019-03-11T16:37:24.087Z,98994.15
2019-03-11T16:40:00.043Z,98998.28
2019-03-11T16:42:35.895Z,98998.86
2019-03-11T16:45:19.120Z,98996.97
2019-03-11T16:47:55.993Z,98999.78
2019-03-11T16:50:31.849Z,99014.52
2019-03-11T16:53:07.707Z,99013.77
2019-03-11T16:55:47.949Z,99017.33
2019-03-11T16:58:23.808Z,99017.09
2019-03-11T17:01:01.316Z,99024.75
2019-03-11T17:03:38.071Z,99030.66
2019-03-11T17:06:13.930Z,99036.77
2019-03-11T17:08:49.779Z,99044.78
2019-03-11T17:11:25.640Z,99051.27
2019-03-11T17:14:01.382Z,99052.83
2019-03-11T17:16:37.118Z,99056.86
2019-03-11T17:19:12.994Z,99061.23
2019-03-11T17:21:48.743Z,99070.98
2019-03-11T17:24:24.498Z,99072.77
2019-03-11T17:27:00.462Z,99076.80
2019-03-11T17:29:36.296Z,99079.60
2019-03-11T17:32:13.036Z,99088.39
2019-03-11T17:34:48.855Z,99096.81
2019-03-11T17:37:24.803Z,99096.39
2019-03-11T17:40:00.627Z,99109.63
2019-03-11T17:42:36.711Z,99100.93
2019-03-11T17:45:13.780Z,99105.44
2019-03-11T17:47:49.754Z,99105.98
2019-03-11T17:50:26.076Z,99108.14
2019-03-11T17:53:02.042Z,99119.80
2019-03-11T17:55:38.014Z,99120.27
2019-03-11T17:58:14.090Z,99112.55
2019-03-11T18:00:55.473Z,99121.75
2019-03-11T18:03:28.652Z,99119.92
2019-03-11T18:06:11.490Z,99119.16
2019-03-11T18:08:42.213Z,99121.58
2019-03-11T18:11:17.955Z,99129.92
2019-03-11T18:13:53.823Z,99128.88
2019-03-11T18:16:29.558Z,99128.14
2019-03-11T18:19:05.728Z,99137.80
2019-03-11T18:21:41.472Z,99143.66
2019-03-11T18:24:17.543Z,99148.37
2019-03-11T18:26:53.398Z,99147.95
2019-03-11T18:29:29.674Z,99149.27
2019-03-11T18:32:05.409Z,99148.75
2019-03-11T18:34:41.278Z,99150.66
2019-03-11T18:37:17.033Z,99146.19
2019-03-11T18:39:52.996Z,99151.34
2019-03-11T18:42:28.856Z,99155.72
2019-03-11T18:45:06.616Z,99157.03
2019-03-11T18:47:42.401Z,99158.25
2019-03-11T18:50:23.213Z,99153.22
2019-03-11T18:52:59.107Z,99155.27
2019-03-11T18:55:35.069Z,99156.54
2019-03-11T18:58:11.155Z,99154.72
2019-03-11T19:00:47.069Z,99158.31
2019-03-11T19:03:22.831Z,99163.49
2019-03-11T19:05:58.677Z,99158.58
2019-03-11T19:08:34.762Z,99171.59
2019-03-11T19:11:10.610Z,99161.26
2019-03-11T19:13:46.488Z,99162.48
2019-03-11T19:16:22.403Z,99173.68
2019-03-11T19:18:58.165Z,99169.15
2019-03-11T19:21:34.075Z,99171.19
2019-03-11T19:24:10.072Z,99169.61
2019-03-11T19:26:46.290Z,99182.47
2019-03-11T19:29:22.283Z,99187.26
2019-03-11T19:31:59.124Z,99192.27
2019-03-11T19:34:34.934Z,99193.92
2019-03-11T19:37:10.771Z,99193.49
2019-03-11T19:39:46.560Z,99191.76
2019-03-11T19:42:23.875Z,99196.67
2019-03-11T19:44:59.697Z,99201.47
2019-03-11T19:47:35.514Z,99196.34
2019-03-11T19:50:13.517Z,99204.94
2019-03-11T19:52:58.378Z,99208.87
2019-03-11T19:55:26.978Z,99201.84
2019-03-11T19:58:02.852Z,99210.82
2019-03-11T20:00:39.694Z,99210.30
2019-03-11T20:03:27.893Z,99200.52
2019-03-11T20:06:02.047Z,99201.45
2019-03-11T20:08:38.041Z,99204.97
2019-03-11T20:11:14.103Z,99203.27
2019-03-11T20:13:51.245Z,99208.91
2019-03-11T20:16:27.066Z,99204.00
2019-03-11T20:19:02.965Z,99207.16
2019-03-11T20:21:38.794Z,99196.19
2019-03-11T20:24:14.663Z,99207.59
2019-03-11T20:26:50.557Z,99210.16
2019-03-11T20:29:26.477Z,99203.72
2019-03-11T20:32:02.363Z,99201.47
2019-03-11T20:34:38.408Z,99202.91
2019-03-11T20:37:14.163Z,99215.81
2019-03-11T20:39:49.996Z,99215.52
2019-03-11T20:42:25.776Z,99220.42
2019-03-11T20:45:01.733Z,99212.96
2019-03-11T20:47:37.843Z,99212.55
2019-03-11T20:50:15.287Z,99213.93
2019-03-11T20:52:51.169Z,99221.85
2019-03-11T20:55:26.961Z,99222.89
2019-03-11T20:58:03.203Z,99224.55
2019-03-11T21:00:39.072Z,99227.56
2019-03-11T21:03:15.068Z,99240.05
2019-03-11T21:05:53.594Z,99241.52
2019-03-11T21:08:29.431Z,99238.55
2019-03-11T21:11:05.338Z,99241.28
2019-03-11T21:13:41.228Z,99250.20
2019-03-11T21:16:17.089Z,99240.59
2019-03-11T21:18:52.987Z,99246.87
2019-03-11T21:21:28.899Z,99241.70
2019-03-11T21:24:04.754Z,99244.44
2019-03-11T21:26:40.645Z,99239.69
2019-03-11T21:29:16.611Z,99248.19
2019-03-11T21:31:52.546Z,99241.89
2019-03-11T21:34:28.392Z,99236.99
2019-03-11T21:37:04.246Z,99243.21
2019-03-11T21:39:40.087Z,99234.88
2019-03-11T21:42:15.934Z,99223.83
2019-03-11T21:44:51.951Z,99225.64
2019-03-11T21:47:27.789Z,99234.79
2019-03-11T21:50:04.605Z,99232.91
2019-03-11T21:52:40.368Z,99241.00
2019-03-11T21:55:16.842Z,99232.66
2019-03-11T21:57:52.790Z,99238.73
2019-03-11T22:00:34.319Z,99252.29
2019-03-11T22:03:06.548Z,99247.46
2019-03-11T22:05:42.407Z,99242.25
2019-03-11T22:08:18.250Z,99249.01
2019-03-11T22:10:54.042Z,99250.36
2019-03-11T22:13:31.141Z,99252.71
2019-03-11T22:16:07.051Z,99255.73
2019-03-11T22:18:42.897Z,99251.90
2019-03-11T22:21:19.881Z,99261.59
2019-03-11T22:23:55.657Z,99249.27
2019-03-11T22:26:31.493Z,99245.38
2019-03-11T22:29:07.339Z,99252.22
2019-03-11T22:31:43.293Z,99237.16
2019-03-11T22:34:19.151Z,99261.91
2019-03-11T22:36:56.116Z,99303.36
2019-03-11T22:39:32.061Z,99270.56
2019-03-11T22:42:07.948Z,99273.70
2019-03-11T22:44:43.795Z,99274.81
2019-03-11T22:47:19.645Z,99276.13
2019-03-11T22:49:55.510Z,99273.81
2019-03-11T22:52:31.364Z,99283.11
2019-03-11T22:55:11.067Z,99285.20
2019-03-11T22:57:46.848Z,99295.21
2019-03-11T23:00:35.914Z,99291.34
2019-03-11T23:03:13.194Z,99295.52
2019-03-11T23:05:57.641Z,99297.22
2019-03-11T23:08:26.661Z,99297.89
2019-03-11T23:11:02.498Z,99304.10
2019-03-11T23:13:38.459Z,99304.10
2019-03-11T23:16:14.313Z,99313.07
2019-03-11T23:18:50.180Z,99330.06
2019-03-11T23:21:26.028Z,99318.86
2019-03-11T23:24:01.909Z,99324.36
2019-03-11T23:26:37.728Z,99340.16
2019-03-11T23:29:13.475Z,99335.84
2019-03-11T23:31:49.343Z,99342.41
2019-03-11T23:34:25.198Z,99342.88
2019-03-11T23:37:01.053Z,99347.78
2019-03-11T23:39:36.894Z,99350.37
2019-03-11T23:42:12.759Z,99358.75
2019-03-11T23:44:48.492Z,99355.31
2019-03-11T23:47:24.359Z,99356.23
2019-03-11T23:50:00.424Z,99366.89
2019-03-11T23:52:36.263Z,99374.31
2019-03-11T23:55:12.852Z,99373.00
2019-03-11T23:57:48.705Z,99375.63
